Date,TemperatureHighF,TemperatureAvgF,TemperatureLowF,DewpointHighF,DewpointAvgF,DewpointLowF,HumidityHigh,HumidityAvg,HumidityLow,PressureMaxIn,PressureMinIn,WindSpeedMaxMPH,WindSpeedAvgMPH,GustSpeedMaxMPH,PrecipitationSumIn
2014-1-1,14,12,11,12,10,8,90,88,86,30.37,30.21,11,5,0,0.00
2014-1-2,13,10,2,11,7,-3,91,87,79,30.31,30.10,20,8,0,0.00
2014-1-3,12,4,-8,4,-2,-12,85,77,69,30.48,30.15,18,6,0,0.00
2014-1-4,31,23,12,25,14,4,92,69,57,30.14,29.91,24,9,0,0.00
2014-1-5,28,24,16,27,23,15,95,94,91,30.02,29.62,16,4,0,0.00
2014-1-6,16,-1,-16,14,-5,-21,92,83,75,30.14,29.66,24,12,0,0.00
2014-1-7,-1,-7,-14,-6,-13,-19,81,76,69,30.38,30.14,19,10,0,0.00
2014-1-8,16,6,-4,8,1,-7,89,80,67,30.53,30.37,9,3,0,0.00
2014-1-9,21,9,-2,19,6,-6,92,87,77,30.59,30.29,13,3,0,0.00
2014-1-10,39,31,21,38,30,19,97,96,93,30.28,29.63,17,6,0,0.55
2014-1-11,42,37,32,41,36,28,100,94,85,29.65,29.32,17,8,0,0.08
2014-1-12,38,33,30,32,29,26,91,83,75,29.93,29.64,25,9,0,0.00
2014-1-13,45,40,34,37,33,31,88,77,70,29.72,29.52,14,7,0,0.00
2014-1-14,35,31,26,31,26,19,92,81,68,29.76,29.64,20,7,0,0.00
2014-1-15,26,23,18,20,17,12,88,80,67,30.00,29.72,27,8,0,0.00
2014-1-16,26,21,16,25,18,11,92,86,77,29.93,29.62,18,9,0,0.00
2014-1-17,28,22,10,26,18,6,93,83,78,29.94,29.61,14,6,0,0.00
2014-1-18,19,14,10,13,10,6,91,84,76,29.94,29.81,15,5,0,0.00
2014-1-19,28,22,13,24,18,11,92,84,71,29.81,29.52,27,9,0,0.00
2014-1-20,33,24,10,28,20,6,91,81,71,30.04,29.50,14,5,0,0.00
2014-1-21,10,5,1,6,-4,-7,81,68,59,30.20,30.03,13,7,0,0.00